Terminal Aerodrome Forecast
Issued by NWS Atlanta, GA

Home | Current Version | Previous Version | Text Only | Print | Product List | Glossary On
Versions: 1 2 3 4 5 6 7 8 9 10 11 12 13 14 15 16 17 18 19 20 21 22 23 24 25 26 27 28 29 30 31 32 33 34 35 36 37
000
FTUS42 KFFC 021748
TAFATL
TAF
KATL 021748Z 0218/0324 33010G15KT P6SM SKC
     FM022300 34005KT P6SM SCT250
     FM030300 33004KT P6SM BKN250
     FM031500 35008KT P6SM BKN250
     FM032000 35008KT P6SM BKN100=

USA.gov is the U.S. government's official web portal to all federal, state and local government web resources and services.